KLAR/LAR METAR and TAF weather

Enter ICAO airport designator
Station Type Date Time Source
KLAR METAR 2022/05/23 13:25 UTC NOAA

KLAR 231325Z AUTO 32009KT 3/4SM -SN BR FEW004 BKN011 OVC017 00/00 A3006 RMK AO2 LTG DSNT SE RAB1256E1257UPB1258E1259SNB1257E1258B1259 P0002 T00000000


Station Type Date Time Source
KLAR Decoded METAR 2022/05/23 13:25 UTC NOAA

LARAMIE REGIONAL AIRPORT, WY, United States (KLAR) 41-19N 105-40W 2216M
May 23, 2022 - 09:25 AM EDT / 2022.05.23 1325 UTC
Wind: from the NW (320 degrees) at 10 MPH (9 KT):0
Visibility: 3/4 mile(s):0
Sky conditions: overcast
Weather: light snow; mist; Lightning observed
Precipitation last hour: 0.02 inches
Temperature: 32.0 F (0.0 C)
Windchill: 23 F (-5 C):1
Dew Point: 32.0 F (0.0 C)
Relative Humidity: 100%
Pressure (altimeter): 30.06 in. Hg (1017 hPa)
ob: KLAR 231325Z AUTO 32009KT 3/4SM -SN BR FEW004 BKN011 OVC017 00/00 A3006 RMK AO2 LTG DSNT SE RAB1256E1257UPB1258E1259SNB1257E1258B1259 P0002 T00000000
cycle: 13

Station Type Date Time Source
KLAR TAF 2022/05/23 13:28 UTC NOAA

TAF
AMD KLAR 231328Z 2313/2412 33010KT 1SM -SN BR BKN015
FM231500 30006KT P6SM VCSH SCT050 BKN100
FM231800 34014G24KT P6SM SCT090

Example: see airport list